sensor_id;sensor_type;location;lat;lon;timestamp;pressure;altitude;pressure_sealevel;temperature;humidity
75585;BME280;64162;53.508;10.476;2022-12-24T00:00:58;99980.16;;;5.83;86.48
75585;BME280;64162;53.508;10.476;2022-12-24T00:03:25;99971.91;;;5.89;86.78
75585;BME280;64162;53.508;10.476;2022-12-24T00:05:51;99981.63;;;5.87;86.65
75585;BME280;64162;53.508;10.476;2022-12-24T00:08:18;99981.22;;;5.81;86.45
75585;BME280;64162;53.508;10.476;2022-12-24T00:10:49;99981.31;;;5.79;86.55
75585;BME280;64162;53.508;10.476;2022-12-24T00:13:17;99977.88;;;5.79;86.83
75585;BME280;64162;53.508;10.476;2022-12-24T00:15:43;99986.34;;;5.82;86.72
75585;BME280;64162;53.508;10.476;2022-12-24T00:18:10;99981.91;;;5.72;86.54
75585;BME280;64162;53.508;10.476;2022-12-24T00:20:37;99985.13;;;5.75;86.96
75585;BME280;64162;53.508;10.476;2022-12-24T00:23:03;99981.06;;;5.71;86.85
75585;BME280;64162;53.508;10.476;2022-12-24T00:25:30;99987.75;;;5.75;86.68
75585;BME280;64162;53.508;10.476;2022-12-24T00:27:57;99987.97;;;5.72;86.74
75585;BME280;64162;53.508;10.476;2022-12-24T00:30:23;99990.34;;;5.75;87.09
75585;BME280;64162;53.508;10.476;2022-12-24T00:32:50;99981.16;;;5.70;86.67
75585;BME280;64162;53.508;10.476;2022-12-24T00:35:16;99981.22;;;5.81;86.84
75585;BME280;64162;53.508;10.476;2022-12-24T00:37:46;99983.94;;;5.79;86.28
75585;BME280;64162;53.508;10.476;2022-12-24T00:40:14;99983.09;;;5.79;86.09
75585;BME280;64162;53.508;10.476;2022-12-24T00:42:41;99990.00;;;5.80;86.58
75585;BME280;64162;53.508;10.476;2022-12-24T00:45:09;99981.44;;;5.78;86.73
75585;BME280;64162;53.508;10.476;2022-12-24T00:47:36;99992.72;;;5.78;86.66
75585;BME280;64162;53.508;10.476;2022-12-24T00:50:03;99998.69;;;5.80;86.78
75585;BME280;64162;53.508;10.476;2022-12-24T00:52:30;99995.47;;;5.77;86.32
75585;BME280;64162;53.508;10.476;2022-12-24T00:54:57;99993.09;;;5.74;86.70
75585;BME280;64162;53.508;10.476;2022-12-24T00:57:23;99992.88;;;5.77;86.75
75585;BME280;64162;53.508;10.476;2022-12-24T00:59:50;100007.81;;;5.75;86.80
75585;BME280;64162;53.508;10.476;2022-12-24T01:02:16;99997.94;;;5.78;86.47
75585;BME280;64162;53.508;10.476;2022-12-24T01:04:43;100003.19;;;5.78;86.73
75585;BME280;64162;53.508;10.476;2022-12-24T01:07:28;100007.97;;;5.84;86.48
75585;BME280;64162;53.508;10.476;2022-12-24T01:09:55;100006.94;;;5.87;86.61
75585;BME280;64162;53.508;10.476;2022-12-24T01:12:21;100009.03;;;5.82;86.62
75585;BME280;64162;53.508;10.476;2022-12-24T01:14:48;100020.22;;;5.84;86.65
75585;BME280;64162;53.508;10.476;2022-12-24T01:17:15;100020.53;;;5.92;86.59
75585;BME280;64162;53.508;10.476;2022-12-24T01:19:42;100027.66;;;5.90;86.18
75585;BME280;64162;53.508;10.476;2022-12-24T01:22:08;100029.63;;;5.86;86.58
75585;BME280;64162;53.508;10.476;2022-12-24T01:24:35;100034.22;;;5.83;86.62
75585;BME280;64162;53.508;10.476;2022-12-24T01:27:01;100030.16;;;5.79;86.92
75585;BME280;64162;53.508;10.476;2022-12-24T01:29:28;100026.59;;;5.80;86.82
75585;BME280;64162;53.508;10.476;2022-12-24T01:31:55;100023.56;;;5.86;87.17
75585;BME280;64162;53.508;10.476;2022-12-24T01:34:21;100028.88;;;5.84;87.56
75585;BME280;64162;53.508;10.476;2022-12-24T01:36:48;100030.50;;;5.74;87.23
75585;BME280;64162;53.508;10.476;2022-12-24T01:39:14;100033.84;;;5.76;87.34
75585;BME280;64162;53.508;10.476;2022-12-24T01:41:41;100037.63;;;5.72;87.37
75585;BME280;64162;53.508;10.476;2022-12-24T01:44:33;100031.00;;;5.79;87.22
75585;BME280;64162;53.508;10.476;2022-12-24T01:47:25;100029.31;;;5.78;87.73
75585;BME280;64162;53.508;10.476;2022-12-24T01:49:56;100029.22;;;5.80;87.23
75585;BME280;64162;53.508;10.476;2022-12-24T01:52:30;100040.13;;;5.74;87.21
75585;BME280;64162;53.508;10.476;2022-12-24T01:55:14;100040.84;;;5.76;86.95
75585;BME280;64162;53.508;10.476;2022-12-24T01:57:46;100038.94;;;5.78;86.96
75585;BME280;64162;53.508;10.476;2022-12-24T02:00:15;100051.91;;;5.79;86.93
75585;BME280;64162;53.508;10.476;2022-12-24T02:02:44;100045.66;;;5.69;87.24
75585;BME280;64162;53.508;10.476;2022-12-24T02:05:17;100053.31;;;5.72;87.49
75585;BME280;64162;53.508;10.476;2022-12-24T02:07:44;100048.69;;;5.76;86.76
75585;BME280;64162;53.508;10.476;2022-12-24T02:10:14;100050.97;;;5.80;86.83
75585;BME280;64162;53.508;10.476;2022-12-24T02:12:42;100049.19;;;5.81;86.90
75585;BME280;64162;53.508;10.476;2022-12-24T02:15:12;100044.06;;;5.79;86.78
75585;BME280;64162;53.508;10.476;2022-12-24T02:32:00;100077.44;;;5.76;86.78
75585;BME280;64162;53.508;10.476;2022-12-24T02:37:01;100068.03;;;5.73;86.93
75585;BME280;64162;53.508;10.476;2022-12-24T02:39:46;100078.03;;;5.79;87.23
75585;BME280;64162;53.508;10.476;2022-12-24T02:42:19;100073.53;;;5.81;86.59
75585;BME280;64162;53.508;10.476;2022-12-24T02:44:55;100082.44;;;5.79;86.78
75585;BME280;64162;53.508;10.476;2022-12-24T02:47:25;100085.50;;;5.73;86.78
75585;BME280;64162;53.508;10.476;2022-12-24T02:49:52;100080.06;;;5.76;86.54
75585;BME280;64162;53.508;10.476;2022-12-24T02:52:30;100087.91;;;5.76;86.82
75585;BME280;64162;53.508;10.476;2022-12-24T02:55:07;100088.50;;;5.79;86.81
75585;BME280;64162;53.508;10.476;2022-12-24T03:00:10;100086.81;;;5.78;86.84
75585;BME280;64162;53.508;10.476;2022-12-24T03:05:47;100083.25;;;5.79;86.42
75585;BME280;64162;53.508;10.476;2022-12-24T03:10:59;100097.53;;;5.75;86.48
75585;BME280;64162;53.508;10.476;2022-12-24T03:13:27;100096.44;;;5.78;86.35
75585;BME280;64162;53.508;10.476;2022-12-24T03:15:54;100095.28;;;5.82;86.62
75585;BME280;64162;53.508;10.476;2022-12-24T03:18:25;100094.13;;;5.86;86.67
75585;BME280;64162;53.508;10.476;2022-12-24T03:20:59;100089.34;;;5.80;86.16
75585;BME280;64162;53.508;10.476;2022-12-24T03:23:27;100093.72;;;5.79;86.39
75585;BME280;64162;53.508;10.476;2022-12-24T03:25:54;100100.88;;;5.77;86.59
75585;BME280;64162;53.508;10.476;2022-12-24T03:28:24;100098.25;;;5.77;86.42
75585;BME280;64162;53.508;10.476;2022-12-24T03:30:52;100102.75;;;5.75;86.66
75585;BME280;64162;53.508;10.476;2022-12-24T03:33:19;100101.06;;;5.74;86.58
75585;BME280;64162;53.508;10.476;2022-12-24T03:35:46;100107.72;;;5.78;86.49
75585;BME280;64162;53.508;10.476;2022-12-24T03:38:13;100114.56;;;5.68;86.67
75585;BME280;64162;53.508;10.476;2022-12-24T03:40:39;100120.09;;;5.76;86.73
75585;BME280;64162;53.508;10.476;2022-12-24T03:43:08;100116.75;;;5.74;86.97
75585;BME280;64162;53.508;10.476;2022-12-24T03:45:35;100125.94;;;5.80;86.58
75585;BME280;64162;53.508;10.476;2022-12-24T03:48:01;100134.72;;;5.79;86.58
75585;BME280;64162;53.508;10.476;2022-12-24T03:50:28;100137.00;;;5.83;86.63
75585;BME280;64162;53.508;10.476;2022-12-24T03:52:55;100133.56;;;5.83;86.53
75585;BME280;64162;53.508;10.476;2022-12-24T03:55:22;100132.81;;;5.81;86.72
75585;BME280;64162;53.508;10.476;2022-12-24T03:57:49;100138.41;;;5.76;87.06
75585;BME280;64162;53.508;10.476;2022-12-24T04:00:15;100136.72;;;5.75;87.42
75585;BME280;64162;53.508;10.476;2022-12-24T04:02:42;100144.66;;;5.74;87.13
75585;BME280;64162;53.508;10.476;2022-12-24T04:05:18;100143.50;;;5.78;87.26
75585;BME280;64162;53.508;10.476;2022-12-24T04:07:45;100148.22;;;5.73;87.06
75585;BME280;64162;53.508;10.476;2022-12-24T04:10:14;100151.56;;;5.75;87.33
75585;BME280;64162;53.508;10.476;2022-12-24T04:12:41;100159.00;;;5.68;87.17
75585;BME280;64162;53.508;10.476;2022-12-24T04:15:08;100159.50;;;5.73;87.24
75585;BME280;64162;53.508;10.476;2022-12-24T04:17:34;100156.91;;;5.73;86.77
75585;BME280;64162;53.508;10.476;2022-12-24T04:20:01;100167.47;;;5.72;87.14
75585;BME280;64162;53.508;10.476;2022-12-24T04:22:29;100163.47;;;5.66;87.32
75585;BME280;64162;53.508;10.476;2022-12-24T04:24:55;100164.00;;;5.71;87.16
75585;BME280;64162;53.508;10.476;2022-12-24T04:27:22;100176.34;;;5.69;87.07
75585;BME280;64162;53.508;10.476;2022-12-24T04:29:52;100168.50;;;5.69;87.08
75585;BME280;64162;53.508;10.476;2022-12-24T04:32:18;100170.06;;;5.72;87.29
75585;BME280;64162;53.508;10.476;2022-12-24T04:34:45;100171.75;;;5.73;87.59
75585;BME280;64162;53.508;10.476;2022-12-24T04:37:11;100173.53;;;5.72;86.95
75585;BME280;64162;53.508;10.476;2022-12-24T04:39:38;100173.72;;;5.69;87.08
75585;BME280;64162;53.508;10.476;2022-12-24T04:42:05;100180.63;;;5.70;87.44
75585;BME280;64162;53.508;10.476;2022-12-24T04:44:31;100185.03;;;5.70;87.44
75585;BME280;64162;53.508;10.476;2022-12-24T04:46:58;100180.72;;;5.69;87.43
75585;BME280;64162;53.508;10.476;2022-12-24T04:49:25;100189.19;;;5.72;87.16
75585;BME280;64162;53.508;10.476;2022-12-24T04:51:51;100185.03;;;5.70;87.62
75585;BME280;64162;53.508;10.476;2022-12-24T04:54:18;100186.50;;;5.74;87.20
75585;BME280;64162;53.508;10.476;2022-12-24T04:56:47;100187.94;;;5.65;87.18
75585;BME280;64162;53.508;10.476;2022-12-24T04:59:13;100191.28;;;5.67;87.05
75585;BME280;64162;53.508;10.476;2022-12-24T05:01:40;100183.25;;;5.70;87.22
75585;BME280;64162;53.508;10.476;2022-12-24T05:04:07;100190.56;;;5.65;87.27
75585;BME280;64162;53.508;10.476;2022-12-24T05:06:36;100195.78;;;5.65;87.01
75585;BME280;64162;53.508;10.476;2022-12-24T05:09:03;100194.09;;;5.64;87.16
75585;BME280;64162;53.508;10.476;2022-12-24T05:11:29;100192.31;;;5.64;87.15
75585;BME280;64162;53.508;10.476;2022-12-24T05:13:56;100186.16;;;5.66;87.37
75585;BME280;64162;53.508;10.476;2022-12-24T05:16:23;100193.38;;;5.62;87.10
75585;BME280;64162;53.508;10.476;2022-12-24T05:18:51;100184.91;;;5.58;87.30
75585;BME280;64162;53.508;10.476;2022-12-24T05:21:20;100189.91;;;5.61;87.31
75585;BME280;64162;53.508;10.476;2022-12-24T05:23:48;100188.03;;;5.63;87.12
75585;BME280;64162;53.508;10.476;2022-12-24T05:26:43;100200.47;;;5.60;87.47
75585;BME280;64162;53.508;10.476;2022-12-24T05:29:11;100190.22;;;5.57;87.41
75585;BME280;64162;53.508;10.476;2022-12-24T05:31:41;100190.31;;;5.55;87.29
75585;BME280;64162;53.508;10.476;2022-12-24T05:34:09;100202.66;;;5.53;87.13
75585;BME280;64162;53.508;10.476;2022-12-24T05:36:36;100201.50;;;5.57;87.36
75585;BME280;64162;53.508;10.476;2022-12-24T05:39:03;100208.09;;;5.50;87.37
75585;BME280;64162;53.508;10.476;2022-12-24T05:41:31;100201.09;;;5.51;87.15
75585;BME280;64162;53.508;10.476;2022-12-24T05:43:58;100203.06;;;5.47;87.25
75585;BME280;64162;53.508;10.476;2022-12-24T05:46:24;100211.75;;;5.48;87.09
75585;BME280;64162;53.508;10.476;2022-12-24T05:48:51;100204.09;;;5.45;87.34
75585;BME280;64162;53.508;10.476;2022-12-24T05:51:19;100206.19;;;5.40;87.28
75585;BME280;64162;53.508;10.476;2022-12-24T05:53:48;100210.38;;;5.42;87.50
75585;BME280;64162;53.508;10.476;2022-12-24T05:56:18;100215.88;;;5.38;87.61
75585;BME280;64162;53.508;10.476;2022-12-24T05:58:45;100205.34;;;5.39;87.20
75585;BME280;64162;53.508;10.476;2022-12-24T06:01:13;100216.09;;;5.35;87.21
75585;BME280;64162;53.508;10.476;2022-12-24T06:03:40;100213.78;;;5.30;87.58
75585;BME280;64162;53.508;10.476;2022-12-24T06:06:13;100221.31;;;5.35;87.39
75585;BME280;64162;53.508;10.476;2022-12-24T06:08:40;100226.53;;;5.35;87.50
75585;BME280;64162;53.508;10.476;2022-12-24T06:11:13;100225.28;;;5.40;87.42
75585;BME280;64162;53.508;10.476;2022-12-24T06:13:41;100219.72;;;5.32;87.38
75585;BME280;64162;53.508;10.476;2022-12-24T06:16:08;100226.63;;;5.33;87.51
75585;BME280;64162;53.508;10.476;2022-12-24T06:18:36;100236.03;;;5.36;87.29
75585;BME280;64162;53.508;10.476;2022-12-24T06:21:03;100236.25;;;5.32;87.52
75585;BME280;64162;53.508;10.476;2022-12-24T06:23:32;100240.94;;;5.27;87.40
75585;BME280;64162;53.508;10.476;2022-12-24T06:26:00;100244.47;;;5.26;87.67
75585;BME280;64162;53.508;10.476;2022-12-24T06:28:32;100234.56;;;5.31;87.44
75585;BME280;64162;53.508;10.476;2022-12-24T06:31:00;100240.00;;;5.28;87.59
75585;BME280;64162;53.508;10.476;2022-12-24T06:33:32;100240.53;;;5.34;87.49
75585;BME280;64162;53.508;10.476;2022-12-24T06:35:59;100244.72;;;5.36;87.48
75585;BME280;64162;53.508;10.476;2022-12-24T06:38:28;100238.94;;;5.18;87.52
75585;BME280;64162;53.508;10.476;2022-12-24T06:40:55;100242.25;;;5.20;87.74
75585;BME280;64162;53.508;10.476;2022-12-24T06:43:22;100245.41;;;5.25;87.66
75585;BME280;64162;53.508;10.476;2022-12-24T06:45:48;100242.06;;;5.23;87.36
75585;BME280;64162;53.508;10.476;2022-12-24T06:48:15;100237.56;;;5.25;87.45
75585;BME280;64162;53.508;10.476;2022-12-24T06:50:42;100241.97;;;5.25;87.07
75585;BME280;64162;53.508;10.476;2022-12-24T06:53:10;100260.16;;;5.26;87.21
75585;BME280;64162;53.508;10.476;2022-12-24T06:55:37;100250.84;;;5.22;87.12
75585;BME280;64162;53.508;10.476;2022-12-24T06:58:04;100260.34;;;5.23;87.50
75585;BME280;64162;53.508;10.476;2022-12-24T07:00:31;100255.75;;;5.14;87.55
75585;BME280;64162;53.508;10.476;2022-12-24T07:02:58;100266.00;;;5.17;87.25
75585;BME280;64162;53.508;10.476;2022-12-24T07:05:25;100256.38;;;5.18;87.58
75585;BME280;64162;53.508;10.476;2022-12-24T07:07:52;100264.13;;;5.19;87.62
75585;BME280;64162;53.508;10.476;2022-12-24T07:10:22;100260.13;;;5.14;87.19
75585;BME280;64162;53.508;10.476;2022-12-24T07:12:50;100265.53;;;5.11;87.43
75585;BME280;64162;53.508;10.476;2022-12-24T07:15:17;100271.41;;;5.14;87.53
75585;BME280;64162;53.508;10.476;2022-12-24T07:17:44;100277.28;;;5.18;87.04
75585;BME280;64162;53.508;10.476;2022-12-24T07:20:12;100282.06;;;5.24;87.31
75585;BME280;64162;53.508;10.476;2022-12-24T07:22:42;100284.03;;;5.20;87.47
75585;BME280;64162;53.508;10.476;2022-12-24T07:25:10;100276.09;;;5.22;87.49
75585;BME280;64162;53.508;10.476;2022-12-24T07:27:37;100284.16;;;5.19;87.20
75585;BME280;64162;53.508;10.476;2022-12-24T07:30:04;100290.09;;;5.21;87.49
75585;BME280;64162;53.508;10.476;2022-12-24T07:32:31;100288.22;;;5.23;87.33
75585;BME280;64162;53.508;10.476;2022-12-24T07:34:58;100294.91;;;5.14;87.55
75585;BME280;64162;53.508;10.476;2022-12-24T07:37:25;100296.50;;;5.03;87.74
75585;BME280;64162;53.508;10.476;2022-12-24T07:39:52;100296.59;;;5.15;87.55
75585;BME280;64162;53.508;10.476;2022-12-24T07:42:19;100300.53;;;5.21;87.37
75585;BME280;64162;53.508;10.476;2022-12-24T07:44:46;100310.91;;;5.22;87.22
75585;BME280;64162;53.508;10.476;2022-12-24T07:47:12;100315.19;;;5.23;87.24
75585;BME280;64162;53.508;10.476;2022-12-24T07:49:39;100312.38;;;5.26;87.11
75585;BME280;64162;53.508;10.476;2022-12-24T07:52:06;100317.59;;;5.26;87.43
75585;BME280;64162;53.508;10.476;2022-12-24T07:54:33;100316.75;;;5.26;87.41
75585;BME280;64162;53.508;10.476;2022-12-24T07:57:03;100318.63;;;5.24;87.48
75585;BME280;64162;53.508;10.476;2022-12-24T07:59:29;100323.38;;;5.31;87.41
75585;BME280;64162;53.508;10.476;2022-12-24T08:01:58;100329.63;;;5.29;87.21
75585;BME280;64162;53.508;10.476;2022-12-24T08:04:30;100334.84;;;5.29;87.27
75585;BME280;64162;53.508;10.476;2022-12-24T08:06:59;100336.34;;;5.33;86.92
75585;BME280;64162;53.508;10.476;2022-12-24T08:09:26;100348.38;;;5.36;87.04
75585;BME280;64162;53.508;10.476;2022-12-24T08:11:55;100347.16;;;5.41;86.93
75585;BME280;64162;53.508;10.476;2022-12-24T08:14:22;100342.75;;;5.42;86.71
75585;BME280;64162;53.508;10.476;2022-12-24T08:16:49;100343.78;;;5.39;87.13
75585;BME280;64162;53.508;10.476;2022-12-24T08:19:16;100343.59;;;5.42;87.04
75585;BME280;64162;53.508;10.476;2022-12-24T08:21:42;100344.44;;;5.43;86.86
75585;BME280;64162;53.508;10.476;2022-12-24T08:24:09;100355.91;;;5.40;87.01
75585;BME280;64162;53.508;10.476;2022-12-24T08:26:38;100358.53;;;5.40;86.83
75585;BME280;64162;53.508;10.476;2022-12-24T08:29:06;100354.78;;;5.44;86.94
75585;BME280;64162;53.508;10.476;2022-12-24T08:31:33;100359.91;;;5.46;86.68
75585;BME280;64162;53.508;10.476;2022-12-24T08:34:15;100362.63;;;5.44;86.62
75585;BME280;64162;53.508;10.476;2022-12-24T08:36:41;100374.28;;;5.53;86.70
75585;BME280;64162;53.508;10.476;2022-12-24T08:39:08;100366.63;;;5.50;87.16
75585;BME280;64162;53.508;10.476;2022-12-24T08:41:35;100369.25;;;5.50;86.99
75585;BME280;64162;53.508;10.476;2022-12-24T08:44:05;100380.03;;;5.58;87.22
75585;BME280;64162;53.508;10.476;2022-12-24T08:46:31;100371.66;;;5.53;86.89
75585;BME280;64162;53.508;10.476;2022-12-24T08:48:58;100368.31;;;5.51;86.67
75585;BME280;64162;53.508;10.476;2022-12-24T08:51:25;100371.91;;;5.62;86.82
75585;BME280;64162;53.508;10.476;2022-12-24T08:53:51;100385.53;;;5.68;86.94
75585;BME280;64162;53.508;10.476;2022-12-24T08:56:18;100394.00;;;5.71;86.71
75585;BME280;64162;53.508;10.476;2022-12-24T08:58:48;100394.41;;;5.78;86.51
75585;BME280;64162;53.508;10.476;2022-12-24T09:01:18;100390.28;;;5.88;86.39
75585;BME280;64162;53.508;10.476;2022-12-24T09:03:48;100389.38;;;5.89;86.47
75585;BME280;64162;53.508;10.476;2022-12-24T09:06:17;100393.19;;;5.83;86.73
75585;BME280;64162;53.508;10.476;2022-12-24T09:08:44;100399.25;;;5.84;86.27
75585;BME280;64162;53.508;10.476;2022-12-24T09:11:13;100398.63;;;5.80;86.24
75585;BME280;64162;53.508;10.476;2022-12-24T09:13:47;100399.03;;;5.74;86.33
75585;BME280;64162;53.508;10.476;2022-12-24T09:16:21;100403.28;;;5.89;86.56
75585;BME280;64162;53.508;10.476;2022-12-24T09:18:48;100418.47;;;5.97;86.28
75585;BME280;64162;53.508;10.476;2022-12-24T09:21:15;100422.03;;;5.96;85.82
75585;BME280;64162;53.508;10.476;2022-12-24T09:23:49;100435.00;;;5.97;85.92
75585;BME280;64162;53.508;10.476;2022-12-24T09:26:23;100430.53;;;6.00;85.91
75585;BME280;64162;53.508;10.476;2022-12-24T09:28:50;100429.47;;;6.02;85.93
75585;BME280;64162;53.508;10.476;2022-12-24T09:31:20;100432.84;;;6.04;86.13
75585;BME280;64162;53.508;10.476;2022-12-24T09:33:48;100438.47;;;5.98;86.45
75585;BME280;64162;53.508;10.476;2022-12-24T09:36:17;100438.56;;;5.96;86.07
75585;BME280;64162;53.508;10.476;2022-12-24T09:38:51;100438.16;;;6.03;85.85
75585;BME280;64162;53.508;10.476;2022-12-24T09:46:58;100436.38;;;6.03;86.10
75585;BME280;64162;53.508;10.476;2022-12-24T09:49:42;100439.00;;;6.03;85.85
75585;BME280;64162;53.508;10.476;2022-12-24T09:52:21;100451.84;;;5.93;86.58
75585;BME280;64162;53.508;10.476;2022-12-24T09:55:15;100465.25;;;5.87;85.86
75585;BME280;64162;53.508;10.476;2022-12-24T09:57:50;100465.59;;;6.10;85.78
75585;BME280;64162;53.508;10.476;2022-12-24T10:00:25;100465.50;;;6.11;85.74
75585;BME280;64162;53.508;10.476;2022-12-24T10:02:53;100459.97;;;6.16;86.20
75585;BME280;64162;53.508;10.476;2022-12-24T10:05:39;100466.72;;;6.33;85.99
75585;BME280;64162;53.508;10.476;2022-12-24T10:14:11;100465.59;;;6.49;85.71
75585;BME280;64162;53.508;10.476;2022-12-24T10:16:48;100462.97;;;6.49;85.08
75585;BME280;64162;53.508;10.476;2022-12-24T10:26:29;100479.97;;;6.56;85.25
75585;BME280;64162;53.508;10.476;2022-12-24T10:29:20;100483.53;;;6.68;85.24
75585;BME280;64162;53.508;10.476;2022-12-24T10:32:08;100492.78;;;6.74;84.90
75585;BME280;64162;53.508;10.476;2022-12-24T10:34:42;100498.53;;;6.79;84.87
75585;BME280;64162;53.508;10.476;2022-12-24T10:37:15;100495.72;;;6.82;84.83
75585;BME280;64162;53.508;10.476;2022-12-24T10:39:42;100500.00;;;6.70;85.13
75585;BME280;64162;53.508;10.476;2022-12-24T10:42:09;100493.50;;;6.76;85.18
75585;BME280;64162;53.508;10.476;2022-12-24T10:44:38;100496.03;;;6.77;84.78
75585;BME280;64162;53.508;10.476;2022-12-24T10:47:07;100502.31;;;6.75;84.80
75585;BME280;64162;53.508;10.476;2022-12-24T10:49:42;100509.41;;;6.73;84.60
75585;BME280;64162;53.508;10.476;2022-12-24T10:52:16;100510.78;;;6.78;85.34
75585;BME280;64162;53.508;10.476;2022-12-24T10:57:32;100509.22;;;6.76;85.27
75585;BME280;64162;53.508;10.476;2022-12-24T11:00:00;100505.47;;;6.80;85.19
75585;BME280;64162;53.508;10.476;2022-12-24T11:02:31;100510.81;;;6.91;84.93
75585;BME280;64162;53.508;10.476;2022-12-24T11:05:00;100506.31;;;6.93;84.65
75585;BME280;64162;53.508;10.476;2022-12-24T11:07:29;100513.00;;;6.97;85.32
75585;BME280;64162;53.508;10.476;2022-12-24T11:10:01;100515.63;;;6.84;85.55
75585;BME280;64162;53.508;10.476;2022-12-24T11:12:31;100518.25;;;6.84;84.72
75585;BME280;64162;53.508;10.476;2022-12-24T11:15:13;100508.81;;;6.94;85.59
75585;BME280;64162;53.508;10.476;2022-12-24T11:17:42;100511.31;;;6.96;85.31
75585;BME280;64162;53.508;10.476;2022-12-24T11:20:22;100509.03;;;6.91;84.62
75585;BME280;64162;53.508;10.476;2022-12-24T11:22:51;100514.28;;;6.91;85.40
75585;BME280;64162;53.508;10.476;2022-12-24T11:25:24;100512.59;;;7.03;85.14
75585;BME280;64162;53.508;10.476;2022-12-24T11:28:10;100512.16;;;7.09;84.50
75585;BME280;64162;53.508;10.476;2022-12-24T11:30:37;100520.97;;;7.08;84.55
75585;BME280;64162;53.508;10.476;2022-12-24T11:35:32;100511.66;;;7.17;84.56
75585;BME280;64162;53.508;10.476;2022-12-24T11:40:44;100518.16;;;7.11;85.28
75585;BME280;64162;53.508;10.476;2022-12-24T11:43:14;100528.00;;;7.08;84.69
75585;BME280;64162;53.508;10.476;2022-12-24T11:45:51;100529.66;;;7.09;84.46
75585;BME280;64162;53.508;10.476;2022-12-24T11:51:03;100510.81;;;7.29;84.65
75585;BME280;64162;53.508;10.476;2022-12-24T11:53:41;100514.06;;;7.33;85.20
75585;BME280;64162;53.508;10.476;2022-12-24T11:56:27;100524.03;;;7.40;84.86
75585;BME280;64162;53.508;10.476;2022-12-24T11:59:01;100517.31;;;7.49;85.04
75585;BME280;64162;53.508;10.476;2022-12-24T12:04:20;100512.44;;;7.55;84.81
75585;BME280;64162;53.508;10.476;2022-12-24T12:06:51;100513.16;;;7.70;84.92
75585;BME280;64162;53.508;10.476;2022-12-24T12:09:40;100519.88;;;7.74;84.38
75585;BME280;64162;53.508;10.476;2022-12-24T12:12:14;100511.78;;;7.77;84.55
75585;BME280;64162;53.508;10.476;2022-12-24T12:15:05;100514.13;;;7.69;84.21
75585;BME280;64162;53.508;10.476;2022-12-24T12:20:29;100528.28;;;7.54;83.51
75585;BME280;64162;53.508;10.476;2022-12-24T12:23:18;100524.34;;;7.48;84.09
75585;BME280;64162;53.508;10.476;2022-12-24T12:28:22;100527.69;;;7.38;84.15
75585;BME280;64162;53.508;10.476;2022-12-24T12:31:08;100531.25;;;7.37;84.39
75585;BME280;64162;53.508;10.476;2022-12-24T12:33:46;100538.38;;;7.35;84.16
75585;BME280;64162;53.508;10.476;2022-12-24T12:36:17;100542.38;;;7.40;84.23
75585;BME280;64162;53.508;10.476;2022-12-24T12:38:45;100536.28;;;7.40;84.73
75585;BME280;64162;53.508;10.476;2022-12-24T12:41:56;100550.75;;;7.45;84.62
75585;BME280;64162;53.508;10.476;2022-12-24T12:58:52;100553.31;;;7.83;84.77
75585;BME280;64162;53.508;10.476;2022-12-24T13:01:31;100548.19;;;7.82;84.27
75585;BME280;64162;53.508;10.476;2022-12-24T13:15:35;100574.28;;;7.96;84.19
75585;BME280;64162;53.508;10.476;2022-12-24T13:21:16;100563.78;;;7.96;84.72
75585;BME280;64162;53.508;10.476;2022-12-24T13:23:43;100570.63;;;7.99;84.29
75585;BME280;64162;53.508;10.476;2022-12-24T13:26:12;100578.59;;;7.97;84.33
75585;BME280;64162;53.508;10.476;2022-12-24T13:28:40;100575.84;;;7.99;85.35
75585;BME280;64162;53.508;10.476;2022-12-24T13:33:47;100591.72;;;7.97;84.02
75585;BME280;64162;53.508;10.476;2022-12-24T13:36:16;100586.56;;;7.95;84.23
75585;BME280;64162;53.508;10.476;2022-12-24T13:38:56;100590.66;;;8.00;84.58
75585;BME280;64162;53.508;10.476;2022-12-24T13:52:05;100623.72;;;8.02;84.73
75585;BME280;64162;53.508;10.476;2022-12-24T13:54:32;100621.41;;;7.98;85.19
75585;BME280;64162;53.508;10.476;2022-12-24T13:56:59;100633.38;;;8.02;85.16
75585;BME280;64162;53.508;10.476;2022-12-24T13:59:34;100626.75;;;7.96;85.10
75585;BME280;64162;53.508;10.476;2022-12-24T14:02:04;100626.97;;;7.93;84.63
75585;BME280;64162;53.508;10.476;2022-12-24T14:04:33;100625.41;;;7.90;84.92
75585;BME280;64162;53.508;10.476;2022-12-24T14:07:03;100632.53;;;7.88;85.46
75585;BME280;64162;53.508;10.476;2022-12-24T14:09:31;100643.34;;;7.84;85.14
75585;BME280;64162;53.508;10.476;2022-12-24T14:14:37;100637.16;;;7.72;84.90
75585;BME280;64162;53.508;10.476;2022-12-24T14:17:13;100629.69;;;7.66;84.95
75585;BME280;64162;53.508;10.476;2022-12-24T14:19:59;100635.56;;;7.57;85.03
75585;BME280;64162;53.508;10.476;2022-12-24T14:22:35;100640.19;;;7.53;85.43
75585;BME280;64162;53.508;10.476;2022-12-24T14:25:17;100638.00;;;7.47;85.53
75585;BME280;64162;53.508;10.476;2022-12-24T14:27:48;100635.88;;;7.40;85.20
75585;BME280;64162;53.508;10.476;2022-12-24T14:30:19;100634.22;;;7.39;85.92
75585;BME280;64162;53.508;10.476;2022-12-24T14:32:48;100630.22;;;7.33;86.07
75585;BME280;64162;53.508;10.476;2022-12-24T14:35:16;100641.00;;;7.28;86.09
75585;BME280;64162;53.508;10.476;2022-12-24T14:38:05;100645.19;;;7.31;86.11
75585;BME280;64162;53.508;10.476;2022-12-24T14:40:40;100649.91;;;7.26;86.25
75585;BME280;64162;53.508;10.476;2022-12-24T14:46:40;100655.44;;;7.21;86.14
75585;BME280;64162;53.508;10.476;2022-12-24T14:52:05;100664.44;;;7.17;85.65
75585;BME280;64162;53.508;10.476;2022-12-24T14:54:43;100659.22;;;7.17;85.65
75585;BME280;64162;53.508;10.476;2022-12-24T14:57:19;100675.88;;;7.16;85.67
75585;BME280;64162;53.508;10.476;2022-12-24T14:59:59;100676.50;;;7.20;86.23